sensor_id;sensor_type;location;lat;lon;timestamp;temperature;humidity
12426;DHT22;6277;49.824;9.562;2023-02-18T00:02:07;14.70;75.00
12426;DHT22;6277;49.824;9.562;2023-02-18T00:04:32;14.70;75.10
12426;DHT22;6277;49.824;9.562;2023-02-18T00:06:58;14.70;75.10
12426;DHT22;6277;49.824;9.562;2023-02-18T00:09:24;14.70;75.10
12426;DHT22;6277;49.824;9.562;2023-02-18T00:11:50;14.70;75.00
12426;DHT22;6277;49.824;9.562;2023-02-18T00:14:16;14.70;75.10
12426;DHT22;6277;49.824;9.562;2023-02-18T00:16:42;14.70;75.00
12426;DHT22;6277;49.824;9.562;2023-02-18T00:19:14;14.70;75.10
12426;DHT22;6277;49.824;9.562;2023-02-18T00:21:40;14.70;75.10
12426;DHT22;6277;49.824;9.562;2023-02-18T00:24:06;14.70;75.10
12426;DHT22;6277;49.824;9.562;2023-02-18T00:26:35;14.70;75.00
12426;DHT22;6277;49.824;9.562;2023-02-18T00:29:01;14.80;75.10
12426;DHT22;6277;49.824;9.562;2023-02-18T00:31:30;14.80;75.10
12426;DHT22;6277;49.824;9.562;2023-02-18T00:33:56;14.80;75.00
12426;DHT22;6277;49.824;9.562;2023-02-18T00:36:22;14.80;75.00
12426;DHT22;6277;49.824;9.562;2023-02-18T00:38:51;14.80;75.10
12426;DHT22;6277;49.824;9.562;2023-02-18T00:41:17;14.80;75.00
12426;DHT22;6277;49.824;9.562;2023-02-18T00:43:43;14.80;75.10
12426;DHT22;6277;49.824;9.562;2023-02-18T00:46:10;14.80;75.20
12426;DHT22;6277;49.824;9.562;2023-02-18T00:48:35;14.80;75.20
12426;DHT22;6277;49.824;9.562;2023-02-18T00:51:02;14.80;75.10
12426;DHT22;6277;49.824;9.562;2023-02-18T00:53:29;14.80;75.20
12426;DHT22;6277;49.824;9.562;2023-02-18T00:55:54;14.70;75.10
12426;DHT22;6277;49.824;9.562;2023-02-18T00:58:20;14.70;75.10
12426;DHT22;6277;49.824;9.562;2023-02-18T01:00:46;14.70;75.20
12426;DHT22;6277;49.824;9.562;2023-02-18T01:03:12;14.70;75.30
12426;DHT22;6277;49.824;9.562;2023-02-18T01:05:38;14.60;75.30
12426;DHT22;6277;49.824;9.562;2023-02-18T01:08:05;14.60;75.30
12426;DHT22;6277;49.824;9.562;2023-02-18T01:10:31;14.60;75.50
12426;DHT22;6277;49.824;9.562;2023-02-18T01:12:57;14.50;75.50
12426;DHT22;6277;49.824;9.562;2023-02-18T01:15:23;14.50;75.70
12426;DHT22;6277;49.824;9.562;2023-02-18T01:17:49;14.40;75.80
12426;DHT22;6277;49.824;9.562;2023-02-18T01:20:16;14.40;75.80
12426;DHT22;6277;49.824;9.562;2023-02-18T01:22:43;14.40;75.90
12426;DHT22;6277;49.824;9.562;2023-02-18T01:25:09;14.30;75.90
12426;DHT22;6277;49.824;9.562;2023-02-18T01:27:36;14.30;76.00
12426;DHT22;6277;49.824;9.562;2023-02-18T01:30:03;14.30;76.00
12426;DHT22;6277;49.824;9.562;2023-02-18T01:32:29;14.30;76.20
12426;DHT22;6277;49.824;9.562;2023-02-18T01:34:55;14.20;76.10
12426;DHT22;6277;49.824;9.562;2023-02-18T01:37:20;14.20;76.20
12426;DHT22;6277;49.824;9.562;2023-02-18T01:39:46;14.20;76.30
12426;DHT22;6277;49.824;9.562;2023-02-18T01:42:24;14.20;76.60
12426;DHT22;6277;49.824;9.562;2023-02-18T01:44:50;14.10;77.00
12426;DHT22;6277;49.824;9.562;2023-02-18T01:47:17;14.10;76.70
12426;DHT22;6277;49.824;9.562;2023-02-18T01:49:50;14.10;76.80
12426;DHT22;6277;49.824;9.562;2023-02-18T01:52:23;14.10;77.10
12426;DHT22;6277;49.824;9.562;2023-02-18T01:54:51;14.00;77.20
12426;DHT22;6277;49.824;9.562;2023-02-18T01:57:24;14.00;77.00
12426;DHT22;6277;49.824;9.562;2023-02-18T01:59:54;14.00;77.30
12426;DHT22;6277;49.824;9.562;2023-02-18T02:02:28;14.00;77.20
12426;DHT22;6277;49.824;9.562;2023-02-18T02:04:54;14.00;77.50
12426;DHT22;6277;49.824;9.562;2023-02-18T02:07:22;14.00;77.20
12426;DHT22;6277;49.824;9.562;2023-02-18T02:09:50;14.00;77.30
12426;DHT22;6277;49.824;9.562;2023-02-18T02:15:38;14.00;77.60
12426;DHT22;6277;49.824;9.562;2023-02-18T02:18:12;14.00;77.30
12426;DHT22;6277;49.824;9.562;2023-02-18T02:26:41;13.90;77.70
12426;DHT22;6277;49.824;9.562;2023-02-18T02:31:56;13.90;77.70
12426;DHT22;6277;49.824;9.562;2023-02-18T02:40:43;13.80;77.70
12426;DHT22;6277;49.824;9.562;2023-02-18T02:43:28;13.80;77.70
12426;DHT22;6277;49.824;9.562;2023-02-18T02:46:05;13.80;77.90
12426;DHT22;6277;49.824;9.562;2023-02-18T02:48:47;13.80;77.90
12426;DHT22;6277;49.824;9.562;2023-02-18T02:51:19;13.80;77.90
12426;DHT22;6277;49.824;9.562;2023-02-18T02:53:46;13.80;77.90
12426;DHT22;6277;49.824;9.562;2023-02-18T02:56:18;13.80;77.80
12426;DHT22;6277;49.824;9.562;2023-02-18T02:58:45;13.80;77.90
12426;DHT22;6277;49.824;9.562;2023-02-18T03:18:53;13.80;78.30
12426;DHT22;6277;49.824;9.562;2023-02-18T03:21:26;13.90;77.80
12426;DHT22;6277;49.824;9.562;2023-02-18T03:26:20;13.80;77.70
12426;DHT22;6277;49.824;9.562;2023-02-18T03:28:48;13.90;77.80
12426;DHT22;6277;49.824;9.562;2023-02-18T03:31:18;13.80;77.80
12426;DHT22;6277;49.824;9.562;2023-02-18T03:33:51;13.90;78.00
12426;DHT22;6277;49.824;9.562;2023-02-18T03:36:20;13.90;77.90
12426;DHT22;6277;49.824;9.562;2023-02-18T03:38:53;13.90;77.90
12426;DHT22;6277;49.824;9.562;2023-02-18T03:41:20;13.90;78.00
12426;DHT22;6277;49.824;9.562;2023-02-18T03:43:53;13.90;77.90
12426;DHT22;6277;49.824;9.562;2023-02-18T03:46:22;13.90;78.10
12426;DHT22;6277;49.824;9.562;2023-02-18T03:48:48;13.90;77.90
12426;DHT22;6277;49.824;9.562;2023-02-18T03:51:13;13.90;78.00
12426;DHT22;6277;49.824;9.562;2023-02-18T03:53:39;13.90;78.00
12426;DHT22;6277;49.824;9.562;2023-02-18T03:56:04;13.90;78.10
12426;DHT22;6277;49.824;9.562;2023-02-18T03:58:30;13.90;78.10
12426;DHT22;6277;49.824;9.562;2023-02-18T04:00:55;13.90;78.00
12426;DHT22;6277;49.824;9.562;2023-02-18T04:03:21;13.90;78.10
12426;DHT22;6277;49.824;9.562;2023-02-18T04:05:46;13.90;78.10
12426;DHT22;6277;49.824;9.562;2023-02-18T04:08:12;13.90;78.10
12426;DHT22;6277;49.824;9.562;2023-02-18T04:10:38;13.80;78.10
12426;DHT22;6277;49.824;9.562;2023-02-18T04:13:03;13.80;78.10
12426;DHT22;6277;49.824;9.562;2023-02-18T04:15:29;13.80;78.10
12426;DHT22;6277;49.824;9.562;2023-02-18T04:17:55;13.80;78.20
12426;DHT22;6277;49.824;9.562;2023-02-18T04:20:21;13.80;78.30
12426;DHT22;6277;49.824;9.562;2023-02-18T04:22:47;13.80;78.30
12426;DHT22;6277;49.824;9.562;2023-02-18T04:25:13;13.80;78.40
12426;DHT22;6277;49.824;9.562;2023-02-18T04:27:38;13.80;78.40
12426;DHT22;6277;49.824;9.562;2023-02-18T04:30:06;13.80;78.40
12426;DHT22;6277;49.824;9.562;2023-02-18T04:32:36;13.80;78.50
12426;DHT22;6277;49.824;9.562;2023-02-18T04:35:01;13.80;78.50
12426;DHT22;6277;49.824;9.562;2023-02-18T04:37:27;13.70;78.40
12426;DHT22;6277;49.824;9.562;2023-02-18T04:39:53;13.70;78.40
12426;DHT22;6277;49.824;9.562;2023-02-18T04:42:18;13.70;78.50
12426;DHT22;6277;49.824;9.562;2023-02-18T04:44:44;13.70;78.70
12426;DHT22;6277;49.824;9.562;2023-02-18T04:47:09;13.70;78.80
12426;DHT22;6277;49.824;9.562;2023-02-18T04:49:35;13.70;78.90
12426;DHT22;6277;49.824;9.562;2023-02-18T04:52:01;13.70;79.00
12426;DHT22;6277;49.824;9.562;2023-02-18T04:54:26;13.70;78.90
12426;DHT22;6277;49.824;9.562;2023-02-18T04:56:52;13.70;78.90
12426;DHT22;6277;49.824;9.562;2023-02-18T04:59:18;13.70;78.90
12426;DHT22;6277;49.824;9.562;2023-02-18T05:01:43;13.70;78.90
12426;DHT22;6277;49.824;9.562;2023-02-18T05:04:09;13.60;78.90
12426;DHT22;6277;49.824;9.562;2023-02-18T05:06:34;13.60;79.00
12426;DHT22;6277;49.824;9.562;2023-02-18T05:09:00;13.60;79.10
12426;DHT22;6277;49.824;9.562;2023-02-18T05:11:25;13.60;79.10
12426;DHT22;6277;49.824;9.562;2023-02-18T05:13:51;13.60;79.20
12426;DHT22;6277;49.824;9.562;2023-02-18T05:16:16;13.60;79.20
12426;DHT22;6277;49.824;9.562;2023-02-18T05:18:42;13.60;79.10
12426;DHT22;6277;49.824;9.562;2023-02-18T05:21:07;13.60;79.10
12426;DHT22;6277;49.824;9.562;2023-02-18T05:23:33;13.60;79.10
12426;DHT22;6277;49.824;9.562;2023-02-18T05:25:58;13.60;79.20
12426;DHT22;6277;49.824;9.562;2023-02-18T05:28:24;13.60;79.20
12426;DHT22;6277;49.824;9.562;2023-02-18T05:30:50;13.60;79.30
12426;DHT22;6277;49.824;9.562;2023-02-18T05:33:15;13.60;79.30
12426;DHT22;6277;49.824;9.562;2023-02-18T05:35:41;13.50;79.30
12426;DHT22;6277;49.824;9.562;2023-02-18T05:38:07;13.60;79.40
12426;DHT22;6277;49.824;9.562;2023-02-18T05:40:32;13.60;79.40
12426;DHT22;6277;49.824;9.562;2023-02-18T05:42:58;13.50;79.40
12426;DHT22;6277;49.824;9.562;2023-02-18T05:45:23;13.60;79.40
12426;DHT22;6277;49.824;9.562;2023-02-18T05:47:49;13.60;79.30
12426;DHT22;6277;49.824;9.562;2023-02-18T05:50:15;13.60;79.30
12426;DHT22;6277;49.824;9.562;2023-02-18T05:52:40;13.60;79.20
12426;DHT22;6277;49.824;9.562;2023-02-18T05:55:06;13.60;79.10
12426;DHT22;6277;49.824;9.562;2023-02-18T05:57:32;13.60;79.00
12426;DHT22;6277;49.824;9.562;2023-02-18T05:59:57;13.50;79.00
12426;DHT22;6277;49.824;9.562;2023-02-18T06:02:23;13.50;78.90
12426;DHT22;6277;49.824;9.562;2023-02-18T06:04:48;13.50;79.00
12426;DHT22;6277;49.824;9.562;2023-02-18T06:07:14;13.50;79.00
12426;DHT22;6277;49.824;9.562;2023-02-18T06:09:40;13.50;79.00
12426;DHT22;6277;49.824;9.562;2023-02-18T06:12:05;13.50;79.00
12426;DHT22;6277;49.824;9.562;2023-02-18T06:14:31;13.50;79.00
12426;DHT22;6277;49.824;9.562;2023-02-18T06:16:57;13.50;79.00
12426;DHT22;6277;49.824;9.562;2023-02-18T06:19:22;13.50;79.00
12426;DHT22;6277;49.824;9.562;2023-02-18T06:21:48;13.50;79.00
12426;DHT22;6277;49.824;9.562;2023-02-18T06:24:13;13.50;79.00
12426;DHT22;6277;49.824;9.562;2023-02-18T06:26:40;13.50;79.00
12426;DHT22;6277;49.824;9.562;2023-02-18T06:29:06;13.50;78.90
12426;DHT22;6277;49.824;9.562;2023-02-18T06:31:31;13.50;78.80
12426;DHT22;6277;49.824;9.562;2023-02-18T06:33:57;13.50;78.70
12426;DHT22;6277;49.824;9.562;2023-02-18T06:36:22;13.60;78.70
12426;DHT22;6277;49.824;9.562;2023-02-18T06:38:48;13.60;78.60
12426;DHT22;6277;49.824;9.562;2023-02-18T06:41:14;13.60;78.50
12426;DHT22;6277;49.824;9.562;2023-02-18T06:43:39;13.60;78.30
12426;DHT22;6277;49.824;9.562;2023-02-18T06:46:05;13.60;78.10
12426;DHT22;6277;49.824;9.562;2023-02-18T06:48:31;13.60;78.10
12426;DHT22;6277;49.824;9.562;2023-02-18T06:50:57;13.70;78.10
12426;DHT22;6277;49.824;9.562;2023-02-18T06:53:23;13.70;77.90
12426;DHT22;6277;49.824;9.562;2023-02-18T06:55:49;13.70;77.90
12426;DHT22;6277;49.824;9.562;2023-02-18T06:58:14;13.70;77.90
12426;DHT22;6277;49.824;9.562;2023-02-18T07:00:40;13.70;77.60
12426;DHT22;6277;49.824;9.562;2023-02-18T07:03:06;13.70;77.60
12426;DHT22;6277;49.824;9.562;2023-02-18T07:05:33;13.80;77.50
12426;DHT22;6277;49.824;9.562;2023-02-18T07:07:58;13.80;77.40
12426;DHT22;6277;49.824;9.562;2023-02-18T07:10:24;13.80;77.40
12426;DHT22;6277;49.824;9.562;2023-02-18T07:12:49;13.80;77.40
12426;DHT22;6277;49.824;9.562;2023-02-18T07:15:15;13.80;77.10
12426;DHT22;6277;49.824;9.562;2023-02-18T07:17:40;13.80;77.10
12426;DHT22;6277;49.824;9.562;2023-02-18T07:20:07;13.90;76.80
12426;DHT22;6277;49.824;9.562;2023-02-18T07:22:33;13.90;76.90
12426;DHT22;6277;49.824;9.562;2023-02-18T07:24:59;13.90;76.90
12426;DHT22;6277;49.824;9.562;2023-02-18T07:27:24;13.90;76.60
12426;DHT22;6277;49.824;9.562;2023-02-18T07:29:50;13.90;76.70
12426;DHT22;6277;49.824;9.562;2023-02-18T07:32:17;14.00;76.60
12426;DHT22;6277;49.824;9.562;2023-02-18T07:34:42;14.00;76.30
12426;DHT22;6277;49.824;9.562;2023-02-18T07:37:08;14.00;76.30
12426;DHT22;6277;49.824;9.562;2023-02-18T07:39:41;14.00;75.80
12426;DHT22;6277;49.824;9.562;2023-02-18T07:42:08;14.00;75.40
12426;DHT22;6277;49.824;9.562;2023-02-18T07:44:35;14.00;75.60
12426;DHT22;6277;49.824;9.562;2023-02-18T07:47:01;14.00;75.40
12426;DHT22;6277;49.824;9.562;2023-02-18T07:49:27;14.00;75.20
12426;DHT22;6277;49.824;9.562;2023-02-18T07:51:54;14.00;74.90
12426;DHT22;6277;49.824;9.562;2023-02-18T07:54:19;14.00;74.90
12426;DHT22;6277;49.824;9.562;2023-02-18T07:56:45;14.00;74.90
12426;DHT22;6277;49.824;9.562;2023-02-18T07:59:12;14.00;74.90
12426;DHT22;6277;49.824;9.562;2023-02-18T08:01:38;14.10;75.10
12426;DHT22;6277;49.824;9.562;2023-02-18T08:04:04;14.10;75.10
12426;DHT22;6277;49.824;9.562;2023-02-18T08:06:36;14.10;75.00
12426;DHT22;6277;49.824;9.562;2023-02-18T08:09:03;14.20;75.00
12426;DHT22;6277;49.824;9.562;2023-02-18T08:11:29;14.20;74.80
12426;DHT22;6277;49.824;9.562;2023-02-18T08:13:54;14.30;74.70
12426;DHT22;6277;49.824;9.562;2023-02-18T08:16:21;14.30;74.40
12426;DHT22;6277;49.824;9.562;2023-02-18T08:18:47;14.30;74.20
12426;DHT22;6277;49.824;9.562;2023-02-18T08:21:15;14.40;74.40
12426;DHT22;6277;49.824;9.562;2023-02-18T08:23:41;14.40;74.50
12426;DHT22;6277;49.824;9.562;2023-02-18T08:26:06;14.40;74.30
12426;DHT22;6277;49.824;9.562;2023-02-18T08:28:32;14.50;74.30
12426;DHT22;6277;49.824;9.562;2023-02-18T08:30:58;14.50;74.20
12426;DHT22;6277;49.824;9.562;2023-02-18T08:33:24;14.60;74.30
12426;DHT22;6277;49.824;9.562;2023-02-18T08:35:52;14.60;74.30
12426;DHT22;6277;49.824;9.562;2023-02-18T08:38:18;14.60;73.90
12426;DHT22;6277;49.824;9.562;2023-02-18T08:40:44;14.60;73.90
12426;DHT22;6277;49.824;9.562;2023-02-18T08:43:10;14.70;73.80
12426;DHT22;6277;49.824;9.562;2023-02-18T08:45:37;14.70;73.70
12426;DHT22;6277;49.824;9.562;2023-02-18T08:48:04;14.70;73.50
12426;DHT22;6277;49.824;9.562;2023-02-18T08:50:29;14.70;73.30
12426;DHT22;6277;49.824;9.562;2023-02-18T08:52:56;14.60;73.00
12426;DHT22;6277;49.824;9.562;2023-02-18T08:55:24;14.60;72.80
12426;DHT22;6277;49.824;9.562;2023-02-18T08:57:51;14.60;72.70
12426;DHT22;6277;49.824;9.562;2023-02-18T09:00:17;14.60;72.90
12426;DHT22;6277;49.824;9.562;2023-02-18T09:02:43;14.60;73.00
12426;DHT22;6277;49.824;9.562;2023-02-18T09:05:09;14.70;72.70
12426;DHT22;6277;49.824;9.562;2023-02-18T09:07:35;14.70;72.50
12426;DHT22;6277;49.824;9.562;2023-02-18T09:10:01;14.60;72.30
12426;DHT22;6277;49.824;9.562;2023-02-18T09:12:27;14.70;72.60
12426;DHT22;6277;49.824;9.562;2023-02-18T09:14:53;14.70;72.70
12426;DHT22;6277;49.824;9.562;2023-02-18T09:17:19;14.70;72.30
12426;DHT22;6277;49.824;9.562;2023-02-18T09:19:44;14.70;72.00
12426;DHT22;6277;49.824;9.562;2023-02-18T09:22:10;14.80;71.80
12426;DHT22;6277;49.824;9.562;2023-02-18T09:24:36;14.80;71.90
12426;DHT22;6277;49.824;9.562;2023-02-18T09:27:02;14.80;71.00
12426;DHT22;6277;49.824;9.562;2023-02-18T09:29:28;14.90;71.00
12426;DHT22;6277;49.824;9.562;2023-02-18T09:31:53;14.90;71.60
12426;DHT22;6277;49.824;9.562;2023-02-18T09:34:19;14.90;70.40
12426;DHT22;6277;49.824;9.562;2023-02-18T09:36:44;15.00;70.40
12426;DHT22;6277;49.824;9.562;2023-02-18T09:39:10;15.00;70.00
12426;DHT22;6277;49.824;9.562;2023-02-18T09:41:42;15.00;69.10
12426;DHT22;6277;49.824;9.562;2023-02-18T09:44:33;15.00;69.20
12426;DHT22;6277;49.824;9.562;2023-02-18T09:49:51;15.00;68.70
12426;DHT22;6277;49.824;9.562;2023-02-18T09:54:49;15.00;69.50
12426;DHT22;6277;49.824;9.562;2023-02-18T09:57:25;15.00;69.10
12426;DHT22;6277;49.824;9.562;2023-02-18T09:59:58;15.00;69.00
12426;DHT22;6277;49.824;9.562;2023-02-18T10:02:25;15.00;68.90
12426;DHT22;6277;49.824;9.562;2023-02-18T10:04:51;15.00;69.40
12426;DHT22;6277;49.824;9.562;2023-02-18T10:07:32;15.00;69.60
12426;DHT22;6277;49.824;9.562;2023-02-18T10:10:02;15.00;69.10
12426;DHT22;6277;49.824;9.562;2023-02-18T10:12:33;15.00;69.40
12426;DHT22;6277;49.824;9.562;2023-02-18T10:15:00;15.00;69.50
12426;DHT22;6277;49.824;9.562;2023-02-18T10:17:29;15.10;69.70
12426;DHT22;6277;49.824;9.562;2023-02-18T10:19:55;15.10;69.40
12426;DHT22;6277;49.824;9.562;2023-02-18T10:22:24;15.10;68.90
12426;DHT22;6277;49.824;9.562;2023-02-18T10:24:56;15.20;68.70
12426;DHT22;6277;49.824;9.562;2023-02-18T10:27:25;15.20;68.00
12426;DHT22;6277;49.824;9.562;2023-02-18T10:29:51;15.20;68.60
12426;DHT22;6277;49.824;9.562;2023-02-18T10:32:32;15.20;68.10
12426;DHT22;6277;49.824;9.562;2023-02-18T10:41:15;15.30;66.90
12426;DHT22;6277;49.824;9.562;2023-02-18T10:44:22;15.30;66.50
12426;DHT22;6277;49.824;9.562;2023-02-18T10:46:59;15.30;66.80
12426;DHT22;6277;49.824;9.562;2023-02-18T10:49:56;15.30;66.20
12426;DHT22;6277;49.824;9.562;2023-02-18T10:52:25;15.30;66.50
12426;DHT22;6277;49.824;9.562;2023-02-18T10:54:59;15.30;66.70
12426;DHT22;6277;49.824;9.562;2023-02-18T10:57:25;15.30;66.70
12426;DHT22;6277;49.824;9.562;2023-02-18T10:59:56;15.30;66.80
12426;DHT22;6277;49.824;9.562;2023-02-18T11:02:26;15.30;65.60
12426;DHT22;6277;49.824;9.562;2023-02-18T11:04:54;15.30;66.10
12426;DHT22;6277;49.824;9.562;2023-02-18T11:07:24;15.30;66.50
12426;DHT22;6277;49.824;9.562;2023-02-18T11:09:58;15.30;66.50
12426;DHT22;6277;49.824;9.562;2023-02-18T11:17:34;15.30;65.00
12426;DHT22;6277;49.824;9.562;2023-02-18T11:22:46;15.30;65.50
12426;DHT22;6277;49.824;9.562;2023-02-18T11:25:21;15.30;66.20
12426;DHT22;6277;49.824;9.562;2023-02-18T11:30:44;15.30;66.10
12426;DHT22;6277;49.824;9.562;2023-02-18T11:33:35;15.30;66.30
12426;DHT22;6277;49.824;9.562;2023-02-18T11:36:08;15.30;65.30
12426;DHT22;6277;49.824;9.562;2023-02-18T11:39:36;15.30;66.20
12426;DHT22;6277;49.824;9.562;2023-02-18T11:41:44;15.30;65.70
12426;DHT22;6277;49.824;9.562;2023-02-18T11:44:20;15.30;65.90
12426;DHT22;6277;49.824;9.562;2023-02-18T11:49:38;15.40;66.20
12426;DHT22;6277;49.824;9.562;2023-02-18T11:52:18;15.40;66.20
12426;DHT22;6277;49.824;9.562;2023-02-18T11:57:32;15.50;65.80
12426;DHT22;6277;49.824;9.562;2023-02-18T11:59:59;15.50;65.70
12426;DHT22;6277;49.824;9.562;2023-02-18T12:05:07;15.50;64.80
12426;DHT22;6277;49.824;9.562;2023-02-18T12:07:43;15.50;64.60
12426;DHT22;6277;49.824;9.562;2023-02-18T12:10:32;15.40;64.20
12426;DHT22;6277;49.824;9.562;2023-02-18T12:15:45;15.50;64.30
12426;DHT22;6277;49.824;9.562;2023-02-18T12:18:20;15.50;64.10
12426;DHT22;6277;49.824;9.562;2023-02-18T12:23:50;15.50;64.00
12426;DHT22;6277;49.824;9.562;2023-02-18T12:26:28;15.60;63.20
12426;DHT22;6277;49.824;9.562;2023-02-18T12:29:20;15.60;63.80
12426;DHT22;6277;49.824;9.562;2023-02-18T12:32:01;15.70;63.20
12426;DHT22;6277;49.824;9.562;2023-02-18T12:43:18;15.60;62.50
12426;DHT22;6277;49.824;9.562;2023-02-18T12:57:13;15.40;62.70
12426;DHT22;6277;49.824;9.562;2023-02-18T13:06:08;15.30;62.90
12426;DHT22;6277;49.824;9.562;2023-02-18T13:08:44;15.30;63.10
12426;DHT22;6277;49.824;9.562;2023-02-18T13:16:27;15.30;62.20
12426;DHT22;6277;49.824;9.562;2023-02-18T13:19:19;15.30;63.20
12426;DHT22;6277;49.824;9.562;2023-02-18T13:21:49;15.30;63.10
12426;DHT22;6277;49.824;9.562;2023-02-18T13:24:34;15.30;63.00
12426;DHT22;6277;49.824;9.562;2023-02-18T13:29:46;15.30;62.90
12426;DHT22;6277;49.824;9.562;2023-02-18T13:32:33;15.30;63.00
12426;DHT22;6277;49.824;9.562;2023-02-18T13:40:26;15.30;62.70
12426;DHT22;6277;49.824;9.562;2023-02-18T13:42:54;15.30;62.70
12426;DHT22;6277;49.824;9.562;2023-02-18T13:45:40;15.40;63.30
12426;DHT22;6277;49.824;9.562;2023-02-18T13:48:26;15.50;62.90
12426;DHT22;6277;49.824;9.562;2023-02-18T13:50:53;15.50;62.40
12426;DHT22;6277;49.824;9.562;2023-02-18T13:53:22;15.60;62.60
12426;DHT22;6277;49.824;9.562;2023-02-18T13:56:32;15.60;62.30
12426;DHT22;6277;49.824;9.562;2023-02-18T13:59:14;15.60;61.20
12426;DHT22;6277;49.824;9.562;2023-02-18T14:01:50;15.60;60.80
12426;DHT22;6277;49.824;9.562;2023-02-18T14:09:59;15.30;62.20
12426;DHT22;6277;49.824;9.562;2023-02-18T14:15:01;15.10;63.10
12426;DHT22;6277;49.824;9.562;2023-02-18T14:17:37;15.10;63.60
12426;DHT22;6277;49.824;9.562;2023-02-18T14:25:03;14.90;64.30
12426;DHT22;6277;49.824;9.562;2023-02-18T14:27:40;14.90;64.60
12426;DHT22;6277;49.824;9.562;2023-02-18T14:30:25;14.80;64.50
12426;DHT22;6277;49.824;9.562;2023-02-18T14:32:58;14.70;64.80
12426;DHT22;6277;49.824;9.562;2023-02-18T14:38:27;14.70;65.40
12426;DHT22;6277;49.824;9.562;2023-02-18T14:51:35;14.70;65.70
12426;DHT22;6277;49.824;9.562;2023-02-18T14:54:05;14.80;65.90
12426;DHT22;6277;49.824;9.562;2023-02-18T14:56:32;14.90;66.00
12426;DHT22;6277;49.824;9.562;2023-02-18T14:59:02;14.90;66.00
12426;DHT22;6277;49.824;9.562;2023-02-18T15:01:31;14.90;66.00
12426;DHT22;6277;49.824;9.562;2023-02-18T15:03:57;15.00;65.80
12426;DHT22;6277;49.824;9.562;2023-02-18T15:06:28;14.90;65.50
12426;DHT22;6277;49.824;9.562;2023-02-18T15:08:55;14.90;65.40
12426;DHT22;6277;49.824;9.562;2023-02-18T15:11:36;14.80;65.40
12426;DHT22;6277;49.824;9.562;2023-02-18T15:14:13;14.70;65.60
12426;DHT22;6277;49.824;9.562;2023-02-18T15:16:41;14.60;65.90
12426;DHT22;6277;49.824;9.562;2023-02-18T15:19:13;14.60;66.00
12426;DHT22;6277;49.824;9.562;2023-02-18T15:21:42;14.50;66.10
12426;DHT22;6277;49.824;9.562;2023-02-18T15:26:45;14.40;66.30
12426;DHT22;6277;49.824;9.562;2023-02-18T15:29:25;14.40;66.40
12426;DHT22;6277;49.824;9.562;2023-02-18T15:31:53;14.30;66.50
12426;DHT22;6277;49.824;9.562;2023-02-18T15:36:55;14.20;66.50
12426;DHT22;6277;49.824;9.562;2023-02-18T15:39:22;14.10;66.40
12426;DHT22;6277;49.824;9.562;2023-02-18T15:41:55;14.10;66.50
12426;DHT22;6277;49.824;9.562;2023-02-18T15:44:23;14.00;66.80
12426;DHT22;6277;49.824;9.562;2023-02-18T15:46:50;14.00;66.80
12426;DHT22;6277;49.824;9.562;2023-02-18T15:49:21;13.90;67.00
12426;DHT22;6277;49.824;9.562;2023-02-18T15:51:48;13.90;67.10
12426;DHT22;6277;49.824;9.562;2023-02-18T15:54:18;13.80;67.00
12426;DHT22;6277;49.824;9.562;2023-02-18T15:56:46;13.70;67.10
12426;DHT22;6277;49.824;9.562;2023-02-18T16:01:48;13.60;67.40
12426;DHT22;6277;49.824;9.562;2023-02-18T16:04:14;13.60;67.40
12426;DHT22;6277;49.824;9.562;2023-02-18T16:06:52;13.50;67.40
12426;DHT22;6277;49.824;9.562;2023-02-18T16:09:28;13.50;67.70
12426;DHT22;6277;49.824;9.562;2023-02-18T16:11:56;13.40;67.80
12426;DHT22;6277;49.824;9.562;2023-02-18T16:14:33;13.40;67.80
12426;DHT22;6277;49.824;9.562;2023-02-18T16:17:16;13.40;68.00
12426;DHT22;6277;49.824;9.562;2023-02-18T16:19:49;13.40;68.20
12426;DHT22;6277;49.824;9.562;2023-02-18T16:22:26;13.30;68.10
12426;DHT22;6277;49.824;9.562;2023-02-18T16:27:35;13.30;68.40
12426;DHT22;6277;49.824;9.562;2023-02-18T16:30:25;13.30;68.40
12426;DHT22;6277;49.824;9.562;2023-02-18T16:32:51;13.30;68.60
12426;DHT22;6277;49.824;9.562;2023-02-18T16:35:17;13.20;68.30
12426;DHT22;6277;49.824;9.562;2023-02-18T16:37:43;13.20;68.50
12426;DHT22;6277;49.824;9.562;2023-02-18T16:40:22;13.20;69.20
12426;DHT22;6277;49.824;9.562;2023-02-18T16:42:49;13.20;69.10
12426;DHT22;6277;49.824;9.562;2023-02-18T16:45:14;13.10;68.70
12426;DHT22;6277;49.824;9.562;2023-02-18T16:47:40;13.10;68.80
12426;DHT22;6277;49.824;9.562;2023-02-18T16:50:19;13.10;68.80
12426;DHT22;6277;49.824;9.562;2023-02-18T16:52:45;13.10;69.10
12426;DHT22;6277;49.824;9.562;2023-02-18T16:55:19;13.00;69.30
12426;DHT22;6277;49.824;9.562;2023-02-18T16:57:45;13.00;69.30
12426;DHT22;6277;49.824;9.562;2023-02-18T17:00:12;13.00;69.30
12426;DHT22;6277;49.824;9.562;2023-02-18T17:02:38;13.00;69.20
12426;DHT22;6277;49.824;9.562;2023-02-18T17:05:04;12.90;69.30
12426;DHT22;6277;49.824;9.562;2023-02-18T17:07:29;12.90;69.40
12426;DHT22;6277;49.824;9.562;2023-02-18T17:09:57;12.90;69.40
12426;DHT22;6277;49.824;9.562;2023-02-18T17:12:23;12.80;69.70
12426;DHT22;6277;49.824;9.562;2023-02-18T17:14:49;12.80;69.70
12426;DHT22;6277;49.824;9.562;2023-02-18T17:17:14;12.90;69.80
12426;DHT22;6277;49.824;9.562;2023-02-18T17:19:46;12.90;69.90
12426;DHT22;6277;49.824;9.562;2023-02-18T17:22:12;12.90;70.00
12426;DHT22;6277;49.824;9.562;2023-02-18T17:24:38;13.00;70.00
12426;DHT22;6277;49.824;9.562;2023-02-18T17:27:03;13.00;70.00
12426;DHT22;6277;49.824;9.562;2023-02-18T17:29:29;13.00;70.00
12426;DHT22;6277;49.824;9.562;2023-02-18T17:31:55;13.00;70.10
12426;DHT22;6277;49.824;9.562;2023-02-18T17:34:25;13.00;70.10
12426;DHT22;6277;49.824;9.562;2023-02-18T17:36:52;13.00;70.20
12426;DHT22;6277;49.824;9.562;2023-02-18T17:39:17;13.00;70.10
12426;DHT22;6277;49.824;9.562;2023-02-18T17:41:44;13.00;70.00
12426;DHT22;6277;49.824;9.562;2023-02-18T17:44:18;13.00;70.10
12426;DHT22;6277;49.824;9.562;2023-02-18T17:46:44;13.00;70.30
12426;DHT22;6277;49.824;9.562;2023-02-18T17:49:09;13.00;70.00
12426;DHT22;6277;49.824;9.562;2023-02-18T17:51:35;13.10;70.00
12426;DHT22;6277;49.824;9.562;2023-02-18T17:54:03;13.10;70.00
12426;DHT22;6277;49.824;9.562;2023-02-18T17:56:34;13.10;70.00
12426;DHT22;6277;49.824;9.562;2023-02-18T17:59:00;13.10;70.00
12426;DHT22;6277;49.824;9.562;2023-02-18T18:01:26;13.20;69.90
12426;DHT22;6277;49.824;9.562;2023-02-18T18:03:51;13.20;69.90
12426;DHT22;6277;49.824;9.562;2023-02-18T18:06:19;13.20;69.80
12426;DHT22;6277;49.824;9.562;2023-02-18T18:08:45;13.20;69.80
12426;DHT22;6277;49.824;9.562;2023-02-18T18:11:22;13.20;69.70
12426;DHT22;6277;49.824;9.562;2023-02-18T18:13:48;13.20;69.80
12426;DHT22;6277;49.824;9.562;2023-02-18T18:16:15;13.20;69.70
12426;DHT22;6277;49.824;9.562;2023-02-18T18:18:42;13.20;69.70
12426;DHT22;6277;49.824;9.562;2023-02-18T18:21:21;13.30;69.70
12426;DHT22;6277;49.824;9.562;2023-02-18T18:23:48;13.30;69.50
12426;DHT22;6277;49.824;9.562;2023-02-18T18:26:15;13.30;69.50
12426;DHT22;6277;49.824;9.562;2023-02-18T18:28:40;13.30;69.50